Ater, Texas
Current Conditions -  °F | °C
As of 1:55 PM on Sunday 23 Nov 2014 (Local Time) from KGOP Reporting Station
Clear Clear  
Wind Chill: 77°   Ceiling: Unl
Heat Index: 77°   Visibility: 10mi
Dew Point: 39°   Wind: 17mph
Humidity: 26%   Direction: 260°W
Pressure: 29.51"   Gusts: 22mph
Location:  31.392°N, 97.7452°W
Report Text: KGOP 231955Z AUTO 26015G19KT 10SM CLR 25/04 A2951 RMK AO2 PWINO
Loading
Personal Weather Stations






























Interactive Weather Map New forecast layout! Learn more

10-Day Weather Forecast

Advertisements
Track Severe Weather on mobile